RYR24L GMMN-LPMA
Flight info
| Callsign | RYR24L |
|---|---|
| Flight time | 1h 29m |
| Altitude | 36000 |
| Route | ODAXA UH899 IBALU DCT SUBAL/N0460F370 DCT LIDRO |
| Aircraft | B738/M-SDE2E3FGHIRWXY/LB1 |
Departure
| Time | 2026-05-06 18:10 |
|---|---|
| Airport | Mohammed V International Airport (GMMN) |
Arrival
| Time | 2026-05-06 19:40 |
|---|---|
| Airport | Cristiano Ronaldo International Airport (LPMA) |
| Time | Latitude | Longitude | Altitude | Speed | Heading |
|---|---|---|---|---|---|
| 2026-05-06 17:47 | 33.36281 | -7.57998 | 657 ft | 0 kts | 73° |
| 2026-05-06 17:49 | 33.36281 | -7.57999 | 657 ft | 0 kts | 73° |
| 2026-05-06 17:56 | 33.36280 | -7.57999 | 657 ft | 0 kts | 72° |
| 2026-05-06 17:57 | 33.36280 | -7.58000 | 657 ft | 0 kts | 72° |
| 2026-05-06 18:00 | 33.36275 | -7.58018 | 657 ft | 2 kts | 72° |
| 2026-05-06 18:00 | 33.36270 | -7.58037 | 657 ft | 2 kts | 72° |
| 2026-05-06 18:01 | 33.36266 | -7.58056 | 657 ft | 2 kts | 91° |
| 2026-05-06 18:01 | 33.36270 | -7.58072 | 657 ft | 1 kts | 154° |
| 2026-05-06 18:01 | 33.36275 | -7.58075 | 657 ft | 0 kts | 162° |
| 2026-05-06 18:02 | 33.36269 | -7.58088 | 657 ft | 5 kts | 269° |
| 2026-05-06 18:02 | 33.36283 | -7.58101 | 657 ft | 0 kts | 345° |
| 2026-05-06 18:05 | 33.36290 | -7.58120 | 657 ft | 6 kts | 281° |
| 2026-05-06 18:05 | 33.36245 | -7.58205 | 657 ft | 15 kts | 229° |
| 2026-05-06 18:05 | 33.36112 | -7.58208 | 658 ft | 22 kts | 165° |
| 2026-05-06 18:06 | 33.35964 | -7.58158 | 659 ft | 22 kts | 164° |
| 2026-05-06 18:06 | 33.35819 | -7.58110 | 659 ft | 21 kts | 164° |
| 2026-05-06 18:06 | 33.35678 | -7.58063 | 659 ft | 21 kts | 164° |
| 2026-05-06 18:06 | 33.35543 | -7.58014 | 662 ft | 20 kts | 165° |
| 2026-05-06 18:07 | 33.35405 | -7.57968 | 663 ft | 22 kts | 162° |
| 2026-05-06 18:07 | 33.35276 | -7.57968 | 662 ft | 17 kts | 219° |
| 2026-05-06 18:07 | 33.35236 | -7.58082 | 663 ft | 4 kts | 254° |
| 2026-05-06 18:07 | 33.35228 | -7.58115 | 663 ft | 4 kts | 253° |
| 2026-05-06 18:08 | 33.35209 | -7.58195 | 663 ft | 16 kts | 262° |
| 2026-05-06 18:08 | 33.35281 | -7.58286 | 665 ft | 0 kts | 342° |
| 2026-05-06 18:08 | 33.35280 | -7.58286 | 665 ft | 0 kts | 342° |
| 2026-05-06 18:09 | 33.35295 | -7.58291 | 663 ft | 7 kts | 343° |
| 2026-05-06 18:10 | 33.35562 | -7.58382 | 660 ft | 77 kts | 343° |
| 2026-05-06 18:10 | 33.36299 | -7.58633 | 659 ft | 140 kts | 345° |
| 2026-05-06 18:10 | 33.37346 | -7.59001 | 1070 ft | 162 kts | 344° |
| 2026-05-06 18:10 | 33.38391 | -7.59371 | 2101 ft | 151 kts | 344° |
| 2026-05-06 18:11 | 33.39409 | -7.59757 | 2795 ft | 163 kts | 342° |
| 2026-05-06 18:11 | 33.40582 | -7.60289 | 3050 ft | 197 kts | 338° |
| 2026-05-06 18:11 | 33.41861 | -7.61101 | 3285 ft | 221 kts | 328° |
| 2026-05-06 18:11 | 33.43111 | -7.62261 | 3741 ft | 233 kts | 320° |
| 2026-05-06 18:12 | 33.44280 | -7.63649 | 4322 ft | 240 kts | 313° |
| 2026-05-06 18:12 | 33.45336 | -7.65214 | 4944 ft | 243 kts | 306° |
| 2026-05-06 18:12 | 33.46281 | -7.66907 | 5556 ft | 246 kts | 302° |
| 2026-05-06 18:12 | 33.47200 | -7.68640 | 6199 ft | 248 kts | 300° |
| 2026-05-06 18:13 | 33.48125 | -7.70393 | 6916 ft | 249 kts | 300° |
| 2026-05-06 18:13 | 33.49056 | -7.72146 | 7737 ft | 250 kts | 300° |
| 2026-05-06 18:13 | 33.49997 | -7.73913 | 8498 ft | 253 kts | 300° |
| 2026-05-06 18:13 | 33.50952 | -7.75697 | 9266 ft | 256 kts | 300° |
| 2026-05-06 18:14 | 33.51904 | -7.77474 | 10026 ft | 258 kts | 299° |
| 2026-05-06 18:14 | 33.52882 | -7.79296 | 10723 ft | 261 kts | 299° |
| 2026-05-06 18:14 | 33.53870 | -7.81135 | 11408 ft | 264 kts | 299° |
| 2026-05-06 18:14 | 33.54870 | -7.82995 | 12091 ft | 267 kts | 299° |
| 2026-05-06 18:15 | 33.55881 | -7.84876 | 12771 ft | 270 kts | 300° |
| 2026-05-06 18:15 | 33.56902 | -7.86778 | 13468 ft | 273 kts | 300° |
| 2026-05-06 18:15 | 33.57939 | -7.88707 | 14091 ft | 276 kts | 300° |
| 2026-05-06 18:15 | 33.59227 | -7.90427 | 14596 ft | 289 kts | 318° |
| 2026-05-06 18:16 | 33.60924 | -7.91914 | 14775 ft | 311 kts | 322° |
| 2026-05-06 18:16 | 33.62761 | -7.93432 | 14926 ft | 330 kts | 322° |
| 2026-05-06 18:16 | 33.64712 | -7.95029 | 15069 ft | 349 kts | 322° |
| 2026-05-06 18:16 | 33.66763 | -7.96716 | 15196 ft | 366 kts | 322° |
| 2026-05-06 18:17 | 33.68902 | -7.98486 | 15316 ft | 381 kts | 322° |
| 2026-05-06 18:17 | 33.71120 | -8.00334 | 15424 ft | 395 kts | 322° |
| 2026-05-06 18:17 | 33.73403 | -8.02244 | 15653 ft | 403 kts | 322° |
| 2026-05-06 18:17 | 33.75708 | -8.04179 | 16061 ft | 406 kts | 322° |
| 2026-05-06 18:18 | 33.78024 | -8.06126 | 16539 ft | 406 kts | 322° |
| 2026-05-06 18:18 | 33.80344 | -8.08080 | 16981 ft | 408 kts | 322° |
| 2026-05-06 18:18 | 33.82642 | -8.10018 | 17385 ft | 410 kts | 322° |
| 2026-05-06 18:18 | 33.85014 | -8.12021 | 17782 ft | 413 kts | 322° |
| 2026-05-06 18:19 | 33.87337 | -8.13984 | 18157 ft | 415 kts | 321° |
| 2026-05-06 18:19 | 33.89705 | -8.15987 | 18501 ft | 417 kts | 321° |
| 2026-05-06 18:19 | 33.92083 | -8.17999 | 18841 ft | 418 kts | 321° |
| 2026-05-06 18:19 | 33.94470 | -8.20020 | 19188 ft | 420 kts | 321° |
| 2026-05-06 18:20 | 33.96861 | -8.22046 | 19530 ft | 422 kts | 321° |
| 2026-05-06 18:20 | 33.99262 | -8.24090 | 19868 ft | 423 kts | 320° |
| 2026-05-06 18:20 | 34.01480 | -8.26395 | 20180 ft | 420 kts | 311° |
| 2026-05-06 18:20 | 34.03526 | -8.28905 | 20513 ft | 421 kts | 310° |
| 2026-05-06 18:21 | 34.05553 | -8.31458 | 20826 ft | 422 kts | 310° |
| 2026-05-06 18:21 | 34.07597 | -8.34010 | 21141 ft | 423 kts | 310° |
| 2026-05-06 18:21 | 34.09660 | -8.36545 | 21443 ft | 425 kts | 310° |
| 2026-05-06 18:21 | 34.11747 | -8.39078 | 21750 ft | 426 kts | 311° |
| 2026-05-06 18:22 | 34.13846 | -8.41611 | 22035 ft | 427 kts | 311° |
| 2026-05-06 18:22 | 34.15947 | -8.44147 | 22311 ft | 429 kts | 311° |
| 2026-05-06 18:22 | 34.18058 | -8.46700 | 22574 ft | 430 kts | 310° |
| 2026-05-06 18:22 | 34.20174 | -8.49272 | 22828 ft | 431 kts | 310° |
| 2026-05-06 18:23 | 34.22285 | -8.51844 | 23082 ft | 432 kts | 310° |
| 2026-05-06 18:23 | 34.24406 | -8.54431 | 23324 ft | 434 kts | 310° |
| 2026-05-06 18:23 | 34.26529 | -8.57022 | 23548 ft | 435 kts | 310° |
| 2026-05-06 18:23 | 34.28662 | -8.59626 | 23740 ft | 436 kts | 310° |
| 2026-05-06 18:24 | 34.30800 | -8.62239 | 23931 ft | 437 kts | 310° |
| 2026-05-06 18:24 | 34.32943 | -8.64858 | 24113 ft | 438 kts | 310° |
| 2026-05-06 18:24 | 34.35087 | -8.67481 | 24287 ft | 439 kts | 310° |
| 2026-05-06 18:24 | 34.37239 | -8.70117 | 24470 ft | 440 kts | 310° |
| 2026-05-06 18:25 | 34.39392 | -8.72754 | 24640 ft | 442 kts | 310° |
| 2026-05-06 18:25 | 34.41529 | -8.75373 | 24818 ft | 442 kts | 310° |
| 2026-05-06 18:25 | 34.43551 | -8.78224 | 24970 ft | 439 kts | 302° |
| 2026-05-06 18:25 | 34.45189 | -8.81336 | 25137 ft | 437 kts | 295° |
| 2026-05-06 18:26 | 34.46406 | -8.84637 | 25290 ft | 435 kts | 289° |
| 2026-05-06 18:26 | 34.47516 | -8.88051 | 25446 ft | 436 kts | 289° |
| 2026-05-06 18:26 | 34.48617 | -8.91470 | 25595 ft | 437 kts | 288° |
| 2026-05-06 18:26 | 34.49725 | -8.94904 | 25731 ft | 438 kts | 289° |
| 2026-05-06 18:27 | 34.50839 | -8.98337 | 25869 ft | 439 kts | 289° |
| 2026-05-06 18:27 | 34.51962 | -9.01782 | 26003 ft | 440 kts | 289° |
| 2026-05-06 18:27 | 34.53090 | -9.05229 | 26139 ft | 440 kts | 289° |
| 2026-05-06 18:27 | 34.54223 | -9.08685 | 26265 ft | 441 kts | 289° |
| 2026-05-06 18:28 | 34.55358 | -9.12147 | 26389 ft | 442 kts | 289° |
| 2026-05-06 18:28 | 34.56496 | -9.15616 | 26506 ft | 443 kts | 289° |
| 2026-05-06 18:28 | 34.57632 | -9.19085 | 26619 ft | 444 kts | 289° |
| 2026-05-06 18:28 | 34.58772 | -9.22570 | 26718 ft | 444 kts | 289° |
| 2026-05-06 18:29 | 34.59754 | -9.25575 | 26824 ft | 445 kts | 289° |
| 2026-05-06 18:29 | 34.60233 | -9.27043 | 26869 ft | 445 kts | 289° |
| 2026-05-06 18:29 | 34.61374 | -9.30542 | 26975 ft | 446 kts | 289° |
| 2026-05-06 18:29 | 34.62514 | -9.34041 | 27078 ft | 447 kts | 289° |
| 2026-05-06 18:30 | 34.63657 | -9.37553 | 27177 ft | 447 kts | 289° |
| 2026-05-06 18:30 | 34.64800 | -9.41070 | 27309 ft | 447 kts | 289° |
| 2026-05-06 18:30 | 34.65939 | -9.44576 | 27470 ft | 446 kts | 289° |
| 2026-05-06 18:30 | 34.67076 | -9.48083 | 27641 ft | 446 kts | 289° |
| 2026-05-06 18:31 | 34.67826 | -9.50398 | 27740 ft | 445 kts | 289° |
| 2026-05-06 18:31 | 34.69343 | -9.55086 | 27929 ft | 445 kts | 289° |
| 2026-05-06 18:31 | 34.70093 | -9.57407 | 28041 ft | 445 kts | 289° |
| 2026-05-06 18:31 | 34.71223 | -9.60906 | 28214 ft | 444 kts | 289° |
| 2026-05-06 18:32 | 34.72348 | -9.64395 | 28365 ft | 444 kts | 289° |
| 2026-05-06 18:32 | 34.73474 | -9.67891 | 28520 ft | 444 kts | 288° |
| 2026-05-06 18:32 | 34.74599 | -9.71386 | 28674 ft | 443 kts | 288° |
| 2026-05-06 18:32 | 34.75718 | -9.74870 | 28852 ft | 443 kts | 288° |
| 2026-05-06 18:33 | 34.76839 | -9.78359 | 29012 ft | 443 kts | 288° |
| 2026-05-06 18:33 | 34.77957 | -9.81848 | 29184 ft | 442 kts | 288° |
| 2026-05-06 18:33 | 34.79071 | -9.85327 | 29347 ft | 442 kts | 288° |
| 2026-05-06 18:33 | 34.80186 | -9.88811 | 29512 ft | 442 kts | 288° |
| 2026-05-06 18:34 | 34.81299 | -9.92295 | 29661 ft | 441 kts | 288° |
| 2026-05-06 18:34 | 34.82408 | -9.95771 | 29833 ft | 441 kts | 288° |
| 2026-05-06 18:34 | 34.83517 | -9.99249 | 30020 ft | 440 kts | 288° |
| 2026-05-06 18:34 | 34.84624 | -10.02723 | 30158 ft | 440 kts | 288° |
| 2026-05-06 18:35 | 34.85729 | -10.06199 | 30285 ft | 440 kts | 288° |
| 2026-05-06 18:35 | 34.86831 | -10.09666 | 30419 ft | 440 kts | 288° |
| 2026-05-06 18:35 | 34.87932 | -10.13138 | 30565 ft | 439 kts | 289° |
| 2026-05-06 18:35 | 34.89031 | -10.16605 | 30718 ft | 438 kts | 289° |
| 2026-05-06 18:36 | 34.90127 | -10.20067 | 30856 ft | 438 kts | 289° |
| 2026-05-06 18:36 | 34.91219 | -10.23521 | 30985 ft | 437 kts | 289° |
| 2026-05-06 18:36 | 34.92312 | -10.26981 | 31127 ft | 437 kts | 289° |
| 2026-05-06 18:36 | 34.93402 | -10.30436 | 31268 ft | 436 kts | 289° |
| 2026-05-06 18:37 | 34.94488 | -10.33881 | 31408 ft | 436 kts | 289° |
| 2026-05-06 18:37 | 34.95574 | -10.37333 | 31537 ft | 436 kts | 289° |
| 2026-05-06 18:37 | 34.96658 | -10.40781 | 31679 ft | 435 kts | 289° |
| 2026-05-06 18:37 | 34.97737 | -10.44218 | 31820 ft | 434 kts | 289° |
| 2026-05-06 18:38 | 34.98816 | -10.47659 | 31947 ft | 434 kts | 289° |
| 2026-05-06 18:38 | 34.99894 | -10.51099 | 32080 ft | 434 kts | 289° |
| 2026-05-06 18:38 | 35.00954 | -10.54488 | 32217 ft | 433 kts | 289° |
| 2026-05-06 18:38 | 35.02025 | -10.57915 | 32343 ft | 433 kts | 289° |
| 2026-05-06 18:39 | 35.03097 | -10.61347 | 32478 ft | 432 kts | 289° |
| 2026-05-06 18:39 | 35.04166 | -10.64775 | 32615 ft | 432 kts | 289° |
| 2026-05-06 18:39 | 35.05231 | -10.68194 | 32744 ft | 431 kts | 289° |
| 2026-05-06 18:40 | 35.07357 | -10.75034 | 33021 ft | 430 kts | 289° |
| 2026-05-06 18:40 | 35.08417 | -10.78448 | 33152 ft | 430 kts | 289° |
| 2026-05-06 18:40 | 35.09475 | -10.81860 | 33281 ft | 429 kts | 290° |
| 2026-05-06 18:40 | 35.10531 | -10.85271 | 33404 ft | 429 kts | 290° |
| 2026-05-06 18:41 | 35.11584 | -10.88675 | 33543 ft | 428 kts | 290° |
| 2026-05-06 18:41 | 35.12633 | -10.92072 | 33685 ft | 427 kts | 290° |
| 2026-05-06 18:41 | 35.13682 | -10.95471 | 33782 ft | 427 kts | 290° |
| 2026-05-06 18:41 | 35.14715 | -10.98823 | 33901 ft | 427 kts | 290° |
| 2026-05-06 18:42 | 35.15773 | -11.02259 | 34032 ft | 426 kts | 290° |
| 2026-05-06 18:42 | 35.16816 | -11.05650 | 34140 ft | 426 kts | 290° |
| 2026-05-06 18:42 | 35.17857 | -11.09040 | 34217 ft | 426 kts | 290° |
| 2026-05-06 18:43 | 35.19935 | -11.15817 | 34405 ft | 425 kts | 290° |
| 2026-05-06 18:43 | 35.21994 | -11.22550 | 34565 ft | 426 kts | 290° |
| 2026-05-06 18:43 | 35.23027 | -11.25933 | 34666 ft | 425 kts | 290° |
| 2026-05-06 18:44 | 35.24061 | -11.29321 | 34755 ft | 425 kts | 290° |
| 2026-05-06 18:44 | 35.26122 | -11.36090 | 34919 ft | 425 kts | 290° |
| 2026-05-06 18:45 | 35.28179 | -11.42863 | 35088 ft | 424 kts | 290° |
| 2026-05-06 18:45 | 35.30229 | -11.49629 | 35260 ft | 424 kts | 290° |
| 2026-05-06 18:46 | 35.32275 | -11.56396 | 35423 ft | 423 kts | 290° |
| 2026-05-06 18:46 | 35.34314 | -11.63155 | 35585 ft | 423 kts | 291° |
| 2026-05-06 18:47 | 35.36346 | -11.69908 | 35748 ft | 423 kts | 291° |
| 2026-05-06 18:47 | 35.38375 | -11.76665 | 35928 ft | 421 kts | 291° |
| 2026-05-06 18:48 | 35.40392 | -11.83401 | 36015 ft | 421 kts | 291° |
| 2026-05-06 18:48 | 35.42406 | -11.90141 | 36018 ft | 421 kts | 291° |
| 2026-05-06 18:49 | 35.44418 | -11.96891 | 36026 ft | 422 kts | 291° |
| 2026-05-06 18:49 | 35.46417 | -12.03613 | 36024 ft | 422 kts | 291° |
| 2026-05-06 18:50 | 35.48425 | -12.10380 | 36030 ft | 422 kts | 291° |
| 2026-05-06 18:50 | 35.50429 | -12.17153 | 36028 ft | 422 kts | 291° |
| 2026-05-06 18:51 | 35.52427 | -12.23915 | 36026 ft | 421 kts | 291° |
| 2026-05-06 18:51 | 35.53364 | -12.30973 | 36041 ft | 428 kts | 268° |
| 2026-05-06 18:51 | 35.52787 | -12.34581 | 36028 ft | 435 kts | 255° |
| 2026-05-06 18:52 | 35.51501 | -12.37974 | 36040 ft | 442 kts | 245° |
| 2026-05-06 18:52 | 35.48315 | -12.44443 | 36027 ft | 444 kts | 243° |
| 2026-05-06 18:53 | 35.45044 | -12.50857 | 36028 ft | 443 kts | 243° |
| 2026-05-06 18:53 | 35.41807 | -12.57300 | 36028 ft | 443 kts | 244° |
| 2026-05-06 18:54 | 35.38605 | -12.63750 | 36035 ft | 443 kts | 244° |
| 2026-05-06 18:54 | 35.35408 | -12.70208 | 36033 ft | 443 kts | 244° |
| 2026-05-06 18:55 | 35.32209 | -12.76663 | 36036 ft | 443 kts | 244° |
| 2026-05-06 18:55 | 35.29001 | -12.83120 | 36041 ft | 444 kts | 245° |
| 2026-05-06 18:56 | 35.25809 | -12.89532 | 36038 ft | 444 kts | 245° |
| 2026-05-06 18:56 | 35.22590 | -12.95985 | 36042 ft | 445 kts | 245° |
| 2026-05-06 18:57 | 35.19366 | -13.02436 | 36042 ft | 445 kts | 245° |
| 2026-05-06 18:57 | 35.16113 | -13.08933 | 36047 ft | 445 kts | 245° |
| 2026-05-06 18:58 | 35.12899 | -13.15343 | 36044 ft | 446 kts | 245° |
| 2026-05-06 18:58 | 35.09657 | -13.21793 | 36050 ft | 446 kts | 245° |
| 2026-05-06 18:59 | 35.06406 | -13.28251 | 36048 ft | 446 kts | 245° |
| 2026-05-06 18:59 | 35.03150 | -13.34705 | 36048 ft | 447 kts | 245° |
| 2026-05-06 19:00 | 34.99891 | -13.41156 | 36046 ft | 447 kts | 245° |
| 2026-05-06 19:00 | 34.96624 | -13.47608 | 36044 ft | 447 kts | 245° |
| 2026-05-06 19:01 | 34.93351 | -13.54062 | 36048 ft | 447 kts | 245° |
| 2026-05-06 19:01 | 34.90076 | -13.60506 | 36057 ft | 448 kts | 245° |
| 2026-05-06 19:02 | 34.86795 | -13.66951 | 36053 ft | 448 kts | 245° |
| 2026-05-06 19:02 | 34.83509 | -13.73395 | 36054 ft | 448 kts | 245° |
| 2026-05-06 19:03 | 34.80220 | -13.79832 | 36058 ft | 448 kts | 245° |
| 2026-05-06 19:03 | 34.76928 | -13.86262 | 36056 ft | 447 kts | 245° |
| 2026-05-06 19:04 | 34.73640 | -13.92675 | 36071 ft | 447 kts | 245° |
| 2026-05-06 19:04 | 34.70367 | -13.99047 | 36051 ft | 447 kts | 245° |
| 2026-05-06 19:05 | 34.67045 | -14.05502 | 36062 ft | 448 kts | 245° |
| 2026-05-06 19:05 | 34.63762 | -14.11869 | 36064 ft | 448 kts | 245° |
| 2026-05-06 19:06 | 34.60457 | -14.18269 | 36065 ft | 448 kts | 245° |
| 2026-05-06 19:06 | 34.57148 | -14.24663 | 36067 ft | 447 kts | 245° |
| 2026-05-06 19:07 | 34.53835 | -14.31053 | 36066 ft | 447 kts | 245° |
| 2026-05-06 19:07 | 34.50519 | -14.37438 | 36070 ft | 447 kts | 245° |
| 2026-05-06 19:08 | 34.47202 | -14.43814 | 36067 ft | 447 kts | 245° |
| 2026-05-06 19:08 | 34.43915 | -14.50122 | 36070 ft | 447 kts | 245° |
| 2026-05-06 19:09 | 34.40593 | -14.56485 | 36074 ft | 447 kts | 245° |
| 2026-05-06 19:09 | 34.37270 | -14.62838 | 36069 ft | 447 kts | 245° |
| 2026-05-06 19:10 | 34.33942 | -14.69190 | 36068 ft | 447 kts | 245° |
| 2026-05-06 19:10 | 34.30614 | -14.75528 | 36076 ft | 447 kts | 245° |
| 2026-05-06 19:11 | 34.27278 | -14.81872 | 36073 ft | 447 kts | 245° |
| 2026-05-06 19:11 | 34.23941 | -14.88208 | 36084 ft | 447 kts | 245° |
| 2026-05-06 19:12 | 34.20601 | -14.94537 | 36085 ft | 447 kts | 245° |
| 2026-05-06 19:12 | 34.17254 | -15.00870 | 36064 ft | 447 kts | 245° |
| 2026-05-06 19:13 | 34.13905 | -15.07194 | 36082 ft | 448 kts | 245° |
| 2026-05-06 19:13 | 34.10546 | -15.13525 | 36086 ft | 448 kts | 245° |
| 2026-05-06 19:14 | 34.07182 | -15.19855 | 36086 ft | 448 kts | 245° |
| 2026-05-06 19:14 | 34.03816 | -15.26179 | 36084 ft | 449 kts | 245° |
| 2026-05-06 19:15 | 34.00460 | -15.32472 | 36088 ft | 449 kts | 245° |
| 2026-05-06 19:15 | 33.98760 | -15.35661 | 35594 ft | 457 kts | 245° |
| 2026-05-06 19:15 | 33.97039 | -15.38886 | 34973 ft | 455 kts | 245° |
| 2026-05-06 19:15 | 33.95329 | -15.42077 | 34201 ft | 453 kts | 245° |
| 2026-05-06 19:16 | 33.93614 | -15.45277 | 33161 ft | 456 kts | 245° |
| 2026-05-06 19:16 | 33.91885 | -15.48508 | 32023 ft | 461 kts | 244° |
| 2026-05-06 19:16 | 33.91239 | -15.49714 | 31607 ft | 463 kts | 244° |
| 2026-05-06 19:16 | 33.91065 | -15.50040 | 31490 ft | 464 kts | 244° |
| 2026-05-06 19:17 | 33.90298 | -15.51472 | 30977 ft | 467 kts | 244° |
| 2026-05-06 19:17 | 33.89820 | -15.52365 | 30664 ft | 468 kts | 244° |
| 2026-05-06 19:17 | 33.88038 | -15.55687 | 29361 ft | 474 kts | 244° |
| 2026-05-06 19:17 | 33.86244 | -15.59026 | 28010 ft | 478 kts | 244° |
| 2026-05-06 19:18 | 33.84430 | -15.62396 | 26849 ft | 479 kts | 243° |
| 2026-05-06 19:18 | 33.82630 | -15.65729 | 26012 ft | 472 kts | 243° |
| 2026-05-06 19:18 | 33.80854 | -15.69011 | 25250 ft | 465 kts | 243° |
| 2026-05-06 19:18 | 33.79103 | -15.72250 | 24446 ft | 459 kts | 243° |
| 2026-05-06 19:19 | 33.77372 | -15.75456 | 23610 ft | 455 kts | 243° |
| 2026-05-06 19:19 | 33.75660 | -15.78628 | 22694 ft | 450 kts | 243° |
| 2026-05-06 19:19 | 33.73966 | -15.81763 | 21915 ft | 443 kts | 243° |
| 2026-05-06 19:19 | 33.72304 | -15.84835 | 21158 ft | 435 kts | 242° |
| 2026-05-06 19:20 | 33.70668 | -15.87858 | 20520 ft | 426 kts | 242° |
| 2026-05-06 19:20 | 33.69068 | -15.90810 | 19904 ft | 418 kts | 242° |
| 2026-05-06 19:20 | 33.67487 | -15.93690 | 19300 ft | 411 kts | 239° |
| 2026-05-06 19:20 | 33.65483 | -15.96130 | 18761 ft | 412 kts | 220° |
| 2026-05-06 19:21 | 33.63110 | -15.98004 | 18232 ft | 405 kts | 216° |
| 2026-05-06 19:21 | 33.61536 | -15.99189 | 17811 ft | 403 kts | 216° |
| 2026-05-06 19:21 | 33.59165 | -16.00953 | 17205 ft | 398 kts | 216° |
| 2026-05-06 19:21 | 33.56825 | -16.02697 | 16626 ft | 397 kts | 216° |
| 2026-05-06 19:22 | 33.53684 | -16.05062 | 15862 ft | 406 kts | 216° |
| 2026-05-06 19:22 | 33.51311 | -16.06861 | 15274 ft | 401 kts | 216° |
| 2026-05-06 19:22 | 33.48978 | -16.08633 | 14693 ft | 393 kts | 216° |
| 2026-05-06 19:22 | 33.47431 | -16.09810 | 14313 ft | 387 kts | 216° |
| 2026-05-06 19:23 | 33.45175 | -16.11528 | 13743 ft | 380 kts | 216° |
| 2026-05-06 19:23 | 33.42962 | -16.13215 | 13131 ft | 374 kts | 216° |
| 2026-05-06 19:23 | 33.40790 | -16.14870 | 12554 ft | 367 kts | 216° |
| 2026-05-06 19:23 | 33.38651 | -16.16501 | 12035 ft | 363 kts | 215° |
| 2026-05-06 19:24 | 33.36526 | -16.18119 | 11506 ft | 360 kts | 215° |
| 2026-05-06 19:24 | 33.34408 | -16.19732 | 11117 ft | 361 kts | 215° |
| 2026-05-06 19:24 | 33.32280 | -16.21352 | 10981 ft | 360 kts | 215° |
| 2026-05-06 19:24 | 33.30208 | -16.22925 | 10805 ft | 344 kts | 215° |
| 2026-05-06 19:25 | 33.28234 | -16.24421 | 10658 ft | 329 kts | 215° |
| 2026-05-06 19:25 | 33.26369 | -16.25835 | 10520 ft | 315 kts | 215° |
| 2026-05-06 19:25 | 33.24559 | -16.27207 | 10388 ft | 302 kts | 215° |
| 2026-05-06 19:25 | 33.22826 | -16.28521 | 10264 ft | 289 kts | 215° |
| 2026-05-06 19:26 | 33.21161 | -16.29784 | 10154 ft | 278 kts | 216° |
| 2026-05-06 19:26 | 33.19553 | -16.31003 | 9956 ft | 271 kts | 216° |
| 2026-05-06 19:26 | 33.17976 | -16.32200 | 9668 ft | 267 kts | 216° |
| 2026-05-06 19:26 | 33.16411 | -16.33387 | 9404 ft | 266 kts | 216° |
| 2026-05-06 19:27 | 33.14838 | -16.34580 | 9148 ft | 270 kts | 215° |
| 2026-05-06 19:27 | 33.13234 | -16.35795 | 8880 ft | 277 kts | 215° |
| 2026-05-06 19:27 | 33.11589 | -16.37039 | 8590 ft | 281 kts | 215° |
| 2026-05-06 19:27 | 33.09948 | -16.38277 | 8287 ft | 277 kts | 215° |
| 2026-05-06 19:28 | 33.08340 | -16.39491 | 8053 ft | 270 kts | 215° |
| 2026-05-06 19:28 | 33.06763 | -16.40682 | 7773 ft | 266 kts | 215° |
| 2026-05-06 19:28 | 33.05209 | -16.41856 | 7492 ft | 266 kts | 215° |
| 2026-05-06 19:28 | 33.03639 | -16.43043 | 7248 ft | 268 kts | 215° |
| 2026-05-06 19:29 | 33.02050 | -16.44244 | 7023 ft | 272 kts | 215° |
| 2026-05-06 19:29 | 33.00443 | -16.45458 | 6790 ft | 275 kts | 215° |
| 2026-05-06 19:29 | 32.98821 | -16.46682 | 6547 ft | 277 kts | 214° |
| 2026-05-06 19:29 | 32.97197 | -16.47907 | 6297 ft | 275 kts | 214° |
| 2026-05-06 19:30 | 32.95594 | -16.49114 | 6027 ft | 271 kts | 214° |
| 2026-05-06 19:30 | 32.94015 | -16.50302 | 5764 ft | 267 kts | 214° |
| 2026-05-06 19:30 | 32.92459 | -16.51517 | 5507 ft | 267 kts | 220° |
| 2026-05-06 19:30 | 32.91063 | -16.52959 | 5258 ft | 265 kts | 225° |
| 2026-05-06 19:31 | 32.89735 | -16.54436 | 5009 ft | 265 kts | 225° |
| 2026-05-06 19:31 | 32.88365 | -16.55941 | 4758 ft | 265 kts | 225° |
| 2026-05-06 19:31 | 32.85719 | -16.58789 | 4713 ft | 252 kts | 225° |
| 2026-05-06 19:32 | 32.84419 | -16.60180 | 4705 ft | 251 kts | 225° |
| 2026-05-06 19:32 | 32.83114 | -16.61574 | 4717 ft | 253 kts | 224° |
| 2026-05-06 19:32 | 32.81709 | -16.62863 | 4718 ft | 256 kts | 213° |
| 2026-05-06 19:32 | 32.80119 | -16.63785 | 4708 ft | 254 kts | 201° |
| 2026-05-06 19:33 | 32.78429 | -16.64448 | 4726 ft | 256 kts | 200° |
| 2026-05-06 19:33 | 32.76735 | -16.65124 | 4691 ft | 258 kts | 200° |
| 2026-05-06 19:33 | 32.75033 | -16.65810 | 4401 ft | 258 kts | 200° |
| 2026-05-06 19:33 | 32.73349 | -16.66490 | 4129 ft | 254 kts | 200° |
| 2026-05-06 19:34 | 32.71713 | -16.67152 | 4004 ft | 243 kts | 200° |
| 2026-05-06 19:34 | 32.70146 | -16.67786 | 3883 ft | 233 kts | 200° |
| 2026-05-06 19:34 | 32.68647 | -16.68394 | 3784 ft | 221 kts | 200° |
| 2026-05-06 19:34 | 32.67215 | -16.68973 | 3728 ft | 215 kts | 200° |
| 2026-05-06 19:35 | 32.65809 | -16.69543 | 3513 ft | 210 kts | 201° |
| 2026-05-06 19:35 | 32.64459 | -16.70089 | 3303 ft | 200 kts | 200° |
| 2026-05-06 19:35 | 32.63201 | -16.70685 | 3071 ft | 188 kts | 211° |
| 2026-05-06 19:35 | 32.62209 | -16.71559 | 2868 ft | 169 kts | 230° |
| 2026-05-06 19:36 | 32.61549 | -16.72635 | 2725 ft | 157 kts | 247° |
| 2026-05-06 19:36 | 32.61120 | -16.73812 | 2581 ft | 157 kts | 256° |
| 2026-05-06 19:36 | 32.60881 | -16.75060 | 2397 ft | 153 kts | 268° |
| 2026-05-06 19:36 | 32.60864 | -16.76297 | 2187 ft | 148 kts | 279° |
| 2026-05-06 19:37 | 32.61054 | -16.77498 | 1964 ft | 148 kts | 291° |
| 2026-05-06 19:37 | 32.61484 | -16.78580 | 1805 ft | 145 kts | 307° |
| 2026-05-06 19:37 | 32.62157 | -16.79471 | 1598 ft | 144 kts | 324° |
| 2026-05-06 19:37 | 32.63014 | -16.80067 | 1363 ft | 141 kts | 340° |
| 2026-05-06 19:38 | 32.63950 | -16.80338 | 1227 ft | 140 kts | 355° |
| 2026-05-06 19:38 | 32.64926 | -16.80375 | 1067 ft | 140 kts | 0° |
| 2026-05-06 19:38 | 32.65885 | -16.80367 | 879 ft | 134 kts | 1° |
| 2026-05-06 19:38 | 32.66797 | -16.80253 | 783 ft | 133 kts | 12° |
| 2026-05-06 19:39 | 32.67649 | -16.79861 | 635 ft | 134 kts | 30° |
| 2026-05-06 19:39 | 32.68338 | -16.79129 | 382 ft | 133 kts | 41° |
| 2026-05-06 19:39 | 32.68988 | -16.78373 | 181 ft | 124 kts | 40° |
| 2026-05-06 19:39 | 32.69532 | -16.77746 | 196 ft | 92 kts | 44° |
| 2026-05-06 19:40 | 32.69895 | -16.77326 | 199 ft | 52 kts | 44° |
| 2026-05-06 19:40 | 32.69942 | -16.77179 | 202 ft | 16 kts | 148° |
| 2026-05-06 19:40 | 32.69847 | -16.77178 | 180 ft | 20 kts | 206° |
| 2026-05-06 19:40 | 32.69742 | -16.77300 | 169 ft | 23 kts | 226° |
| 2026-05-06 19:41 | 32.69655 | -16.77405 | 170 ft | 11 kts | 226° |
| 2026-05-06 19:41 | 32.69602 | -16.77470 | 178 ft | 11 kts | 225° |
| 2026-05-06 19:41 | 32.69549 | -16.77535 | 177 ft | 11 kts | 226° |
| 2026-05-06 19:41 | 32.69493 | -16.77605 | 175 ft | 12 kts | 227° |
| 2026-05-06 19:42 | 32.69434 | -16.77679 | 174 ft | 13 kts | 225° |
| 2026-05-06 19:42 | 32.69397 | -16.77724 | 173 ft | 0 kts | 226° |
| 2026-05-06 19:42 | 32.69395 | -16.77725 | 173 ft | 0 kts | 226° |
| 2026-05-06 19:43 | 32.69393 | -16.77726 | 173 ft | 1 kts | 210° |
| 2026-05-06 19:43 | 32.69359 | -16.77718 | 172 ft | 5 kts | 131° |
| 2026-05-06 19:43 | 32.69337 | -16.77693 | 172 ft | 0 kts | 137° |
| 2026-05-06 19:43 | 32.69336 | -16.77692 | 172 ft | 1 kts | 137° |
| 2026-05-06 19:44 | 32.69335 | -16.77690 | 172 ft | 0 kts | 137° |